createdAt,value
2017-04-07T00:00:05.245Z,61.4
2017-04-07T00:01:08.397Z,61.4
2017-04-07T00:02:10.741Z,61.3
2017-04-07T00:03:13.589Z,61.3
2017-04-07T00:04:16.499Z,61.4
2017-04-07T00:05:18.846Z,61.4
2017-04-07T00:06:21.452Z,61.4
2017-04-07T00:07:23.803Z,61.6
2017-04-07T00:08:26.520Z,61.6
2017-04-07T00:09:29.369Z,61.7
2017-04-07T00:10:31.713Z,61.8
2017-04-07T00:11:34.818Z,61.7
2017-04-07T00:12:37.165Z,61.8
2017-04-07T00:13:40.598Z,61.6
2017-04-07T00:15:45.348Z,61.7
2017-04-07T00:16:48.001Z,61.7
2017-04-07T00:17:50.347Z,61.7
2017-04-07T00:18:53.195Z,61.7
2017-04-07T00:19:55.552Z,61.8
2017-04-07T00:20:58.400Z,61.7
2017-04-07T00:22:02.077Z,61.8
2017-04-07T00:24:06.341Z,61.9
2017-04-07T00:25:09.193Z,61.9
2017-04-07T00:26:11.543Z,62
2017-04-07T00:27:15.256Z,62
2017-04-07T00:28:17.095Z,62
2017-04-07T00:29:19.643Z,62
2017-04-07T00:30:22.354Z,62.1
2017-04-07T00:31:25.102Z,62.2
2017-04-07T00:33:30.614Z,62.3
2017-04-07T00:34:32.963Z,62.4
2017-04-07T00:35:35.307Z,62.4
2017-04-07T00:36:38.023Z,62.5
2017-04-07T00:37:40.877Z,62.6
2017-04-07T00:38:43.476Z,62.6
2017-04-07T00:39:45.820Z,62.6
2017-04-07T00:40:48.670Z,62.5
2017-04-07T00:41:51.550Z,62.4
2017-04-07T00:42:53.894Z,62.5
2017-04-07T00:43:57.560Z,62.5
2017-04-07T00:44:59.980Z,62.5
2017-04-07T00:46:01.821Z,62.4
2017-04-07T00:47:04.673Z,62.4
2017-04-07T00:48:06.886Z,62.4
2017-04-07T00:50:12.844Z,62.4
2017-04-07T00:52:17.593Z,62.3
2017-04-07T00:53:20.447Z,62.4
2017-04-07T00:54:23.863Z,62.5
2017-04-07T00:55:25.946Z,62.3
2017-04-07T00:56:28.289Z,62.4
2017-04-07T00:57:31.139Z,62.4
2017-04-07T00:58:33.488Z,62.5
2017-04-07T00:59:36.899Z,62.6
2017-04-07T01:00:39.041Z,62.6
2017-04-07T01:01:41.752Z,62.6
2017-04-07T01:02:44.097Z,62.6
2017-04-07T01:03:47.515Z,62.7
2017-04-07T01:04:49.356Z,62.7
2017-04-07T01:05:52.334Z,62.7
2017-04-07T01:06:54.684Z,62.7
2017-04-07T01:07:57.536Z,62.7
2017-04-07T01:08:59.887Z,62.8
2017-04-07T01:10:02.738Z,62.9
2017-04-07T01:12:08.170Z,63
2017-04-07T01:13:10.528Z,63.1
2017-04-07T01:16:18.696Z,63.3
2017-04-07T01:17:21.296Z,63.2
2017-04-07T01:18:23.643Z,63.3
2017-04-07T01:19:26.491Z,63.3
2017-04-07T01:20:29.339Z,63.4
2017-04-07T01:21:31.684Z,63.5
2017-04-07T01:22:34.838Z,63.4
2017-04-07T01:23:37.189Z,63.4
2017-04-07T01:24:39.397Z,63.5
2017-04-07T01:25:42.487Z,63.6
2017-04-07T01:26:44.835Z,63.5
2017-04-07T01:27:47.853Z,63.5
2017-04-07T01:28:50.063Z,63.7
2017-04-07T01:29:52.915Z,63.6
2017-04-07T01:30:55.770Z,63.7
2017-04-07T01:31:58.115Z,63.8
2017-04-07T01:33:01.217Z,63.7
2017-04-07T01:34:03.561Z,63.9
2017-04-07T01:35:05.915Z,64
2017-04-07T01:36:08.766Z,64
2017-04-07T01:57:11.284Z,64.4
2017-04-07T01:58:04.061Z,64.5
2017-04-07T01:59:06.901Z,64.5
2017-04-07T02:00:09.104Z,64.5
2017-04-07T02:01:11.949Z,64.5
2017-04-07T02:02:15.041Z,64.5
2017-04-07T02:03:17.377Z,64.4
2017-04-07T02:04:20.219Z,64.5
2017-04-07T02:05:22.560Z,64.4
2017-04-07T02:06:25.404Z,64.4
2017-04-07T02:07:28.041Z,64.2
2017-04-07T02:08:30.946Z,64.5
2017-04-07T02:09:33.284Z,64.5
2017-04-07T02:10:35.640Z,64.4
2017-04-07T02:11:38.491Z,64.5
2017-04-07T02:12:41.633Z,64.6
2017-04-07T02:18:56.791Z,64.8
2017-04-07T02:19:59.635Z,64.8
2017-04-07T02:21:01.979Z,64.8
2017-04-07T02:22:04.823Z,64.7
2017-04-07T02:23:07.676Z,64.7
2017-04-07T02:25:13.239Z,64.8
2017-04-07T02:26:15.581Z,64.7
2017-04-07T02:27:17.822Z,64.8
2017-04-07T02:28:20.668Z,64.9
2017-04-07T02:29:23.384Z,64.9
2017-04-07T02:30:26.030Z,64.8
2017-04-07T02:31:28.377Z,64.8
2017-04-07T02:32:31.224Z,65
2017-04-07T02:33:34.074Z,64.9
2017-04-07T02:34:36.420Z,64.8
2017-04-07T02:35:39.440Z,65
2017-04-07T02:36:41.785Z,65
2017-04-07T02:37:44.126Z,65
2017-04-07T02:38:46.979Z,65
2017-04-07T02:39:49.822Z,65
2017-04-07T02:40:52.334Z,64.9
2017-04-07T02:43:59.999Z,64.8
2017-04-07T02:45:02.851Z,64.7
2017-04-07T02:46:05.998Z,64.8
2017-04-07T02:47:08.209Z,64.8
2017-04-07T02:48:10.577Z,64.7
2017-04-07T02:49:13.290Z,64.7
2017-04-07T02:50:16.000Z,64.7
2017-04-07T02:51:19.110Z,64.7
2017-04-07T02:52:21.453Z,64.6
2017-04-07T02:53:23.667Z,64.7
2017-04-07T02:54:26.378Z,64.6
2017-04-07T02:55:29.220Z,64.7
2017-04-07T02:56:32.369Z,64.7
2017-04-07T02:57:34.212Z,64.9
2017-04-07T02:58:37.056Z,64.8
2017-04-07T02:59:39.769Z,64.7
2017-04-07T03:00:42.115Z,64.7
2017-04-07T03:01:45.239Z,64.7
2017-04-07T03:03:50.490Z,64.5
2017-04-07T03:04:52.835Z,64.6
2017-04-07T03:05:55.682Z,64.6
2017-04-07T03:06:58.196Z,64.6
2017-04-07T03:08:00.968Z,64.6
2017-04-07T03:09:03.684Z,64.6
2017-04-07T03:10:06.026Z,64.6
2017-04-07T03:11:08.601Z,64.7
2017-04-07T03:12:11.702Z,64.6
2017-04-07T03:13:14.043Z,64.6
2017-04-07T03:14:16.390Z,64.6
2017-04-07T03:15:19.096Z,64.5
2017-04-07T03:16:21.810Z,64.5
2017-04-07T03:17:24.909Z,64.5
2017-04-07T03:18:27.258Z,64.4
2017-04-07T03:19:29.601Z,64.5
2017-04-07T03:20:32.448Z,64.5
2017-04-07T03:21:34.851Z,64.6
2017-04-07T03:22:37.994Z,64.5
2017-04-07T03:23:40.911Z,64.5
2017-04-07T03:24:42.745Z,64.5
2017-04-07T03:25:45.465Z,64.4
2017-04-07T03:26:48.311Z,64.6
2017-04-07T03:27:50.906Z,64.6
2017-04-07T03:28:53.750Z,64.6
2017-04-07T03:29:56.091Z,64.6
2017-04-07T03:30:59.089Z,64.7
2017-04-07T03:32:01.434Z,64.5
2017-04-07T03:33:04.583Z,64.7
2017-04-07T03:34:06.924Z,64.6
2017-04-07T03:35:09.335Z,64.6
2017-04-07T03:36:12.213Z,64.6
2017-04-07T03:37:14.559Z,64.5
2017-04-07T03:38:17.710Z,64.5
2017-04-07T03:39:20.054Z,64.5
2017-04-07T03:40:22.391Z,64.5
2017-04-07T03:41:25.100Z,64.5
2017-04-07T03:42:27.943Z,64.4
2017-04-07T03:43:30.379Z,64.3
2017-04-07T03:44:33.225Z,64.3
2017-04-07T03:45:35.565Z,64.3
2017-04-07T03:46:38.276Z,64.3
2017-04-07T03:47:41.128Z,64.3
2017-04-07T03:48:43.770Z,64.3
2017-04-07T03:49:46.111Z,64.3
2017-04-07T03:50:48.958Z,64.3
2017-04-07T03:51:51.298Z,64.4
2017-04-07T03:52:54.150Z,64.4
2017-04-07T03:53:56.794Z,64.3
2017-04-07T03:54:59.136Z,64.4
2017-04-07T03:56:01.986Z,64.3
2017-04-07T03:57:04.835Z,64.4
2017-04-07T03:58:07.042Z,64.3
2017-04-07T03:59:10.140Z,64.3
2017-04-07T04:00:12.480Z,64.3
2017-04-07T04:01:15.333Z,64.3
2017-04-07T04:02:17.583Z,64.4
2017-04-07T04:03:20.433Z,64.5
2017-04-07T04:04:23.449Z,64.4
2017-04-07T04:05:25.793Z,64.4
2017-04-07T04:06:28.140Z,64.4
2017-04-07T04:08:33.389Z,64.3
2017-04-07T04:09:36.535Z,64.5
2017-04-07T04:10:38.878Z,65.1
2017-04-07T04:11:41.288Z,64.8
2017-04-07T04:12:44.129Z,64.8
2017-04-07T04:13:46.969Z,65
2017-04-07T04:14:49.617Z,65
2017-04-07T04:15:51.958Z,64.9
2017-04-07T04:16:54.803Z,64.9
2017-04-07T04:17:57.145Z,64.8
2017-04-07T04:19:00.554Z,64.9
2017-04-07T04:20:02.662Z,65
2017-04-07T04:21:05.006Z,64.8
2017-04-07T04:22:07.862Z,64.9
2017-04-07T04:23:10.707Z,64.8
2017-04-07T04:25:16.260Z,64.4
2017-04-07T04:26:18.483Z,64.6
2017-04-07T04:27:20.693Z,64.7
2017-04-07T04:28:23.541Z,64.7
2017-04-07T04:29:26.391Z,64.8
2017-04-07T04:30:29.039Z,64.7
2017-04-07T04:32:34.158Z,64.9
2017-04-07T04:33:36.866Z,64.9
2017-04-07T04:34:39.577Z,64.9
2017-04-07T04:35:42.225Z,64.8
2017-04-07T04:36:44.564Z,64.7
2017-04-07T04:37:47.408Z,64.7
2017-04-07T04:38:49.651Z,64.7
2017-04-07T04:39:52.492Z,64.7
2017-04-07T04:40:55.597Z,64.7
2017-04-07T04:41:57.936Z,64.7
2017-04-07T04:43:00.646Z,64.7
2017-04-07T04:44:03.359Z,64.8
2017-04-07T04:45:05.574Z,64.7
2017-04-07T04:46:08.671Z,64.8
2017-04-07T04:47:11.008Z,64.7
2017-04-07T04:48:13.855Z,64.9
2017-04-07T04:49:16.196Z,64.9
2017-04-07T04:50:19.044Z,64.5
2017-04-07T04:51:21.739Z,64.7
2017-04-07T04:52:24.643Z,64.7
2017-04-07T04:53:26.984Z,64.8
2017-04-07T04:54:29.195Z,64.7
2017-04-07T04:56:34.988Z,64.8
2017-04-07T04:57:37.328Z,65
2017-04-07T04:58:40.204Z,65
2017-04-07T04:59:42.617Z,64.6
2017-04-07T05:01:48.176Z,64.8
2017-04-07T05:02:50.518Z,64.8
2017-04-07T05:03:53.365Z,64.9
2017-04-07T05:04:55.708Z,64.7
2017-04-07T05:05:58.561Z,64.7
2017-04-07T05:07:01.204Z,64.7
2017-04-07T05:08:03.564Z,64.8
2017-04-07T05:10:09.251Z,64.6
2017-04-07T05:11:11.596Z,64.9
2017-04-07T05:12:14.246Z,64.6
2017-04-07T05:13:16.587Z,64.6
2017-04-07T05:14:19.456Z,64.5
2017-04-07T05:16:25.269Z,64.6
2017-04-07T05:17:27.416Z,64.6
2017-04-07T05:18:29.760Z,64.7
2017-04-07T05:19:32.607Z,64.6
2017-04-07T05:20:35.452Z,64.6
2017-04-07T05:21:37.792Z,64.8
2017-04-07T05:22:40.889Z,64.8
2017-04-07T05:23:43.228Z,64.8
2017-04-07T05:24:45.568Z,64.9
2017-04-07T05:25:48.411Z,64.9
2017-04-07T05:26:51.260Z,64.6
2017-04-07T05:27:53.909Z,64.7
2017-04-07T05:28:56.248Z,64.8
2017-04-07T05:29:59.096Z,64.8
2017-04-07T05:31:01.447Z,64.9
2017-04-07T05:32:04.291Z,64.7
2017-04-07T05:33:06.940Z,64.8
2017-04-07T05:34:09.283Z,64.8
2017-04-07T05:35:12.132Z,64.9
2017-04-07T05:36:14.470Z,65
2017-04-07T05:37:17.318Z,64.7
2017-04-07T05:38:20.412Z,64.7
2017-04-07T05:39:22.750Z,64.8
2017-04-07T05:40:25.095Z,64.6
2017-04-07T05:41:27.997Z,64.8
2017-04-07T05:42:30.335Z,64.8
2017-04-07T05:43:33.346Z,64.6
2017-04-07T05:44:35.690Z,64.6
2017-04-07T05:45:38.533Z,64.6
2017-04-07T05:46:40.878Z,64.8
2017-04-07T05:47:43.781Z,64.6
2017-04-07T05:48:46.378Z,64.9
2017-04-07T05:49:48.779Z,64.7
2017-04-07T05:50:51.626Z,64.7
2017-04-07T05:51:53.966Z,64.9
2017-04-07T05:52:56.809Z,64.8
2017-04-07T05:53:59.418Z,64.5
2017-04-07T05:55:02.267Z,64.6
2017-04-07T05:56:04.611Z,64.7
2017-04-07T05:57:07.458Z,64.9
2017-04-07T05:58:09.802Z,64.7
2017-04-07T05:59:12.903Z,64.7
2017-04-07T06:00:15.249Z,64.6
2017-04-07T06:01:17.594Z,64.5
2017-04-07T06:02:20.442Z,64.8
2017-04-07T06:03:23.291Z,64.5
2017-04-07T06:04:25.937Z,64.5
2017-04-07T06:05:28.147Z,64.4
2017-04-07T06:06:31.229Z,64.3
2017-04-07T06:07:33.790Z,64.2
2017-04-07T06:08:36.191Z,64.4
2017-04-07T06:09:39.296Z,64.4
2017-04-07T06:10:41.636Z,64.3
2017-04-07T06:11:43.839Z,64.4
2017-04-07T06:12:46.681Z,64.5
2017-04-07T06:13:49.405Z,64.5
2017-04-07T06:14:52.992Z,64.4
2017-04-07T06:15:54.833Z,64
2017-04-07T06:16:57.179Z,64
2017-04-07T06:17:59.887Z,64.2
2017-04-07T06:19:02.599Z,64.3
2017-04-07T06:21:07.971Z,64.3
2017-04-07T06:22:10.319Z,64.1
2017-04-07T06:23:13.170Z,64.1
2017-04-07T06:24:15.513Z,64
2017-04-07T06:25:18.358Z,64
2017-04-07T06:26:21.459Z,64.1
2017-04-07T06:27:23.804Z,64.3
2017-04-07T06:28:26.015Z,64.3
2017-04-07T06:29:28.859Z,64.3
2017-04-07T06:30:31.707Z,64.1
2017-04-07T06:31:34.350Z,64.2
2017-04-07T06:32:36.691Z,64.2
2017-04-07T06:33:39.397Z,64.4
2017-04-07T06:34:42.029Z,64.4
2017-04-07T06:35:44.877Z,64.4
2017-04-07T06:36:47.527Z,64.6
2017-04-07T06:37:49.732Z,64.4
2017-04-07T06:38:52.441Z,64.4
2017-04-07T06:39:55.281Z,64.4
2017-04-07T06:40:57.623Z,64.6
2017-04-07T06:42:00.772Z,64.3
2017-04-07T06:43:03.130Z,64.3
2017-04-07T06:44:06.043Z,64.4
2017-04-07T06:45:08.388Z,64.5
2017-04-07T06:46:10.728Z,64.6
2017-04-07T06:47:13.880Z,64.6
2017-04-07T06:48:16.229Z,64.6
2017-04-07T06:49:19.073Z,64.6
2017-04-07T06:50:21.411Z,64.6
2017-04-07T06:51:24.261Z,64.6
2017-04-07T06:52:26.907Z,64.6
2017-04-07T06:53:29.112Z,64.8
2017-04-07T06:54:31.823Z,64.7
2017-04-07T06:55:34.672Z,64.6
2017-04-07T06:56:37.516Z,64.8
2017-04-07T06:57:40.127Z,64.7
2017-04-07T06:58:42.524Z,64.7
2017-04-07T06:59:45.239Z,64.7
2017-04-07T07:00:47.588Z,64.9
2017-04-07T07:01:50.996Z,64.9
2017-04-07T07:02:53.504Z,64.8
2017-04-07T07:03:55.850Z,65.3
2017-04-07T07:04:58.061Z,65.6
2017-04-07T07:06:00.962Z,65.6
2017-04-07T07:07:03.808Z,65.8
2017-04-07T07:08:06.464Z,66.8
2017-04-07T07:09:08.711Z,67.2
2017-04-07T07:10:11.423Z,67.4
2017-04-07T07:11:14.271Z,67.8
2017-04-07T07:12:16.613Z,68
2017-04-07T07:13:19.763Z,68.7
2017-04-07T07:14:22.103Z,69.9
2017-04-07T07:15:24.449Z,70.6
2017-04-07T07:16:27.165Z,70.9
2017-04-07T07:17:30.011Z,70.8
2017-04-07T07:18:32.611Z,71.9
2017-04-07T07:19:34.950Z,72.5
2017-04-07T07:20:37.794Z,73.9
2017-04-07T07:21:40.510Z,74.5
2017-04-07T07:22:42.856Z,74.1
2017-04-07T07:23:46.022Z,74.9
2017-04-07T07:24:48.373Z,76
2017-04-07T07:25:50.715Z,76.4
2017-04-07T07:26:53.563Z,76.4
2017-04-07T07:27:56.410Z,75.6
2017-04-07T07:28:59.057Z,77
2017-04-07T07:30:01.269Z,77.6
2017-04-07T07:31:04.116Z,77.7
2017-04-07T07:32:06.463Z,77.8
2017-04-07T07:33:09.124Z,78.7
2017-04-07T07:34:12.219Z,79.7
2017-04-07T07:35:14.561Z,79.3
2017-04-07T07:36:17.409Z,80.7
2017-04-07T07:37:19.749Z,80.8
2017-04-07T07:38:22.592Z,80.4
2017-04-07T07:39:25.616Z,80.7
2017-04-07T07:40:27.956Z,81.4
2017-04-07T07:41:30.165Z,80.5
2017-04-07T07:42:32.879Z,81.2
2017-04-07T07:43:35.731Z,82
2017-04-07T07:44:38.192Z,81.6
2017-04-07T07:45:41.039Z,81.1
2017-04-07T07:46:43.388Z,82
2017-04-07T07:47:46.240Z,82.7
2017-04-07T07:48:48.583Z,83.1
2017-04-07T07:49:51.680Z,83
2017-04-07T07:50:54.018Z,83.1
2017-04-07T07:51:56.828Z,82.9
2017-04-07T07:52:59.727Z,83.7
2017-04-07T07:54:02.073Z,83.2
2017-04-07T07:55:04.670Z,84.1
2017-04-07T07:56:07.038Z,83.5
2017-04-07T07:57:09.890Z,83.8
2017-04-07T07:58:12.230Z,84
2017-04-07T07:59:14.940Z,83.8
2017-04-07T08:00:18.037Z,84
2017-04-07T08:01:20.381Z,83.8
2017-04-07T08:02:22.727Z,84.3
2017-04-07T08:03:25.982Z,84.2
2017-04-07T08:04:28.327Z,84.1
2017-04-07T08:05:30.793Z,84.2
2017-04-07T08:06:33.138Z,84.5
2017-04-07T08:07:35.990Z,84.8
2017-04-07T08:09:41.247Z,84.4
2017-04-07T08:11:46.758Z,84.5
2017-04-07T08:12:49.099Z,84.6
2017-04-07T08:13:51.941Z,84.6
2017-04-07T08:14:54.286Z,84.8
2017-04-07T08:15:57.138Z,84.8
2017-04-07T08:16:59.732Z,84.1
2017-04-07T08:18:02.079Z,84.6
2017-04-07T08:19:04.929Z,84.5
2017-04-07T08:20:07.278Z,84.5
2017-04-07T08:21:10.121Z,84.6
2017-04-07T08:22:13.132Z,84.7
2017-04-07T08:23:15.347Z,85.1
2017-04-07T08:24:18.770Z,84.4
2017-04-07T08:25:20.609Z,84.3
2017-04-07T08:26:23.459Z,85.2
2017-04-07T08:27:26.107Z,84.6
2017-04-07T08:28:28.458Z,84.8
2017-04-07T08:29:31.041Z,84.8
2017-04-07T08:30:33.886Z,85
2017-04-07T08:31:36.091Z,84.9
2017-04-07T08:32:39.255Z,85.2
2017-04-07T08:33:41.608Z,84.9
2017-04-07T08:34:44.318Z,84.9
2017-04-07T08:35:46.527Z,85
2017-04-07T08:36:49.368Z,85.2
2017-04-07T08:37:52.381Z,85.1
2017-04-07T08:38:54.721Z,84.8
2017-04-07T08:39:57.562Z,85
2017-04-07T08:40:59.767Z,85.1
2017-04-07T08:42:02.612Z,84.9
2017-04-07T08:43:05.761Z,85.4
2017-04-07T08:44:07.607Z,85.3
2017-04-07T08:45:10.453Z,85.2
2017-04-07T08:46:13.168Z,85.2
2017-04-07T08:47:15.878Z,85.4
2017-04-07T08:48:18.524Z,85.5
2017-04-07T08:49:20.869Z,85.7
2017-04-07T08:50:23.641Z,85.5
2017-04-07T08:51:25.984Z,85.5
2017-04-07T08:52:28.827Z,85.3
2017-04-07T08:53:31.927Z,85.4
2017-04-07T08:54:34.271Z,85.2
2017-04-07T08:55:37.023Z,84.9
2017-04-07T08:56:39.363Z,85.4
2017-04-07T08:57:41.763Z,85.1
2017-04-07T08:58:44.909Z,85.2
2017-04-07T08:59:47.253Z,85.2
2017-04-07T09:00:49.593Z,84.9
2017-04-07T09:01:52.439Z,84.9
2017-04-07T09:02:55.280Z,84.9
2017-04-07T09:03:57.875Z,84.7
2017-04-07T09:05:00.283Z,84.2
2017-04-07T09:06:03.129Z,84.9
2017-04-07T09:07:05.343Z,85
2017-04-07T09:08:08.250Z,85
2017-04-07T09:09:10.842Z,85.1
2017-04-07T09:10:13.695Z,85.5
2017-04-07T09:11:16.039Z,85
2017-04-07T09:12:18.887Z,85.1
2017-04-07T09:13:21.228Z,85.2
2017-04-07T09:14:24.191Z,85
2017-04-07T09:15:27.095Z,85.1
2017-04-07T09:16:29.440Z,85.5
2017-04-07T09:17:31.648Z,85.4
2017-04-07T09:18:34.499Z,85.2
2017-04-07T09:19:37.645Z,85.5
2017-04-07T09:20:39.489Z,85.2
2017-04-07T09:21:42.334Z,84.7
2017-04-07T09:22:45.737Z,85.1
2017-04-07T09:23:47.577Z,84.9
2017-04-07T09:24:50.676Z,85.6
2017-04-07T09:25:53.582Z,85.1
2017-04-07T09:26:55.420Z,84.7
2017-04-07T09:27:58.266Z,84.4
2017-04-07T09:29:00.611Z,84
2017-04-07T09:30:03.708Z,84.7
2017-04-07T09:31:06.052Z,84
2017-04-07T09:33:11.313Z,84.8
2017-04-07T09:34:13.527Z,84.7
2017-04-07T09:35:16.628Z,84.8
2017-04-07T09:36:19.337Z,84
2017-04-07T09:37:21.549Z,84.3
2017-04-07T09:38:24.392Z,84
2017-04-07T09:39:27.236Z,84.4
2017-04-07T09:40:29.828Z,83.8
2017-04-07T09:41:32.167Z,83.6
2017-04-07T09:42:35.008Z,83.9
2017-04-07T09:43:37.350Z,84.1
2017-04-07T09:44:40.060Z,84.4
2017-04-07T09:45:43.127Z,83.6
2017-04-07T09:46:45.332Z,83.6
2017-04-07T09:47:48.040Z,84.2
2017-04-07T09:48:50.884Z,83.2
2017-04-07T09:49:53.226Z,83
2017-04-07T09:50:56.377Z,83.6
2017-04-07T09:51:58.724Z,83.8
2017-04-07T09:53:01.073Z,83
2017-04-07T09:54:03.920Z,84.2
2017-04-07T09:55:06.264Z,83.9
2017-04-07T09:56:09.342Z,84.1
2017-04-07T09:57:11.681Z,84.5
2017-04-07T09:58:14.391Z,84.5
2017-04-07T09:59:17.791Z,83.7
2017-04-07T10:00:19.627Z,83.4
2017-04-07T10:01:22.644Z,82.8
2017-04-07T10:02:24.851Z,83.5
2017-04-07T10:03:27.323Z,83.8
2017-04-07T10:04:30.169Z,83.2
2017-04-07T10:05:33.015Z,83.1
2017-04-07T10:06:35.608Z,83.1
2017-04-07T10:07:37.814Z,83.5
2017-04-07T10:08:40.392Z,83.8
2017-04-07T10:09:43.240Z,83.9
2017-04-07T10:11:48.791Z,83.6
2017-04-07T10:12:51.132Z,83.9
2017-04-07T10:13:53.980Z,83.7
2017-04-07T10:14:56.324Z,83.6
2017-04-07T10:15:59.173Z,84.2
2017-04-07T10:17:02.324Z,83.3
2017-04-07T10:19:07.080Z,84
2017-04-07T10:21:12.334Z,83.1
2017-04-07T10:22:15.518Z,83.8
2017-04-07T10:23:17.411Z,83.6
2017-04-07T10:24:20.259Z,83.1
2017-04-07T10:25:23.101Z,83.7
2017-04-07T10:26:25.450Z,82.6
2017-04-07T10:27:28.560Z,82.7
2017-04-07T10:28:30.906Z,82.7
2017-04-07T10:29:33.251Z,83
2017-04-07T10:30:36.100Z,82.3
2017-04-07T10:31:38.951Z,82.5
2017-04-07T10:32:41.546Z,82.2
2017-04-07T10:34:46.802Z,82.5
2017-04-07T10:35:49.146Z,82.5
2017-04-07T10:36:51.986Z,82.8
2017-04-07T10:37:54.578Z,82.5
2017-04-07T10:38:57.420Z,82.4
2017-04-07T10:39:59.640Z,82.4
2017-04-07T10:41:02.487Z,83.1
2017-04-07T10:42:05.335Z,83.6
2017-04-07T10:43:07.929Z,83.2
2017-04-07T10:44:10.267Z,83.1
2017-04-07T10:45:13.119Z,83.2
2017-04-07T10:46:15.459Z,83.2
2017-04-07T10:47:18.302Z,83.3
2017-04-07T10:48:21.466Z,83
2017-04-07T10:49:23.673Z,82.8
2017-04-07T10:50:26.075Z,83.5
2017-04-07T10:51:28.920Z,81.7
2017-04-07T10:52:31.762Z,82.1
2017-04-07T10:53:34.412Z,81.2
2017-04-07T10:54:36.758Z,82.2
2017-04-07T10:55:39.477Z,82
2017-04-07T10:56:42.194Z,82.8
2017-04-07T10:57:44.536Z,82.5
2017-04-07T10:58:47.635Z,83.1
2017-04-07T10:59:49.975Z,82.1
2017-04-07T11:00:52.824Z,82.2
2017-04-07T11:01:55.165Z,82.5
2017-04-07T11:02:58.010Z,82.2
2017-04-07T11:04:00.654Z,82.6
2017-04-07T11:05:02.995Z,82.5
2017-04-07T11:06:05.710Z,81.9
2017-04-07T11:07:08.559Z,82.7
2017-04-07T11:08:10.902Z,82.2
2017-04-07T11:09:13.998Z,81.7
2017-04-07T11:10:16.346Z,81.5
2017-04-07T11:11:19.061Z,81.6
2017-04-07T11:13:24.319Z,80.6
2017-04-07T11:14:28.093Z,81.4
2017-04-07T11:15:29.429Z,80.4
2017-04-07T11:16:32.275Z,80.2
2017-04-07T11:17:35.129Z,79.8
2017-04-07T11:18:37.467Z,78.4
2017-04-07T11:20:43.014Z,79.7
2017-04-07T11:21:45.359Z,79.3
2017-04-07T11:22:48.206Z,79.9
2017-04-07T11:23:50.560Z,79.3
2017-04-07T11:24:53.406Z,77.6
2017-04-07T11:25:56.503Z,77.9
2017-04-07T11:26:58.848Z,76.7
2017-04-07T11:28:01.191Z,77.9
2017-04-07T11:29:04.604Z,77.7
2017-04-07T11:30:06.516Z,77.5
2017-04-07T11:31:09.615Z,77.1
2017-04-07T11:32:11.965Z,77.5
2017-04-07T11:33:14.232Z,77.2
2017-04-07T11:34:16.943Z,77.5
2017-04-07T11:35:19.652Z,77.4
2017-04-07T11:36:22.805Z,77.9
2017-04-07T11:37:25.153Z,77.1
2017-04-07T11:38:27.528Z,76.7
2017-04-07T11:39:30.375Z,76.5
2017-04-07T11:40:33.222Z,76.6
2017-04-07T11:41:35.868Z,76.2
2017-04-07T11:42:38.215Z,75.7
2017-04-07T11:43:41.063Z,75
2017-04-07T11:45:46.046Z,75.1
2017-04-07T11:46:49.194Z,73.5
2017-04-07T11:47:51.534Z,74.1
2017-04-07T11:48:54.380Z,74.2
2017-04-07T11:49:56.723Z,73.8
2017-04-07T11:50:59.566Z,74.5
2017-04-07T11:52:02.157Z,73.9
2017-04-07T11:53:04.499Z,73.6
2017-04-07T11:54:07.345Z,72.5
2017-04-07T11:55:10.192Z,71.4
2017-04-07T11:56:12.537Z,72.4
2017-04-07T11:57:15.687Z,73.1
2017-04-07T11:58:18.028Z,72.9
2017-04-07T11:59:20.373Z,72.9
2017-04-07T12:00:23.246Z,72.7
2017-04-07T12:01:26.098Z,73
2017-04-07T12:02:28.744Z,72.2
2017-04-07T12:03:31.090Z,72.2
2017-04-07T12:04:33.934Z,72.7
2017-04-07T12:05:36.691Z,72.3
2017-04-07T12:06:38.907Z,72.1
2017-04-07T12:07:42.058Z,72.2
2017-04-07T12:08:44.268Z,72.6
2017-04-07T12:09:47.116Z,71.7
2017-04-07T12:10:49.457Z,71.8
2017-04-07T12:11:52.304Z,71.5
2017-04-07T12:12:55.456Z,72.4
2017-04-07T12:13:57.800Z,70.8
2017-04-07T12:15:00.014Z,70.7
2017-04-07T12:16:02.871Z,69.1
2017-04-07T12:17:05.722Z,70.5
2017-04-07T12:18:08.368Z,70.8
2017-04-07T12:19:10.715Z,69.1
2017-04-07T12:20:13.563Z,69.8
2017-04-07T12:21:16.149Z,70
2017-04-07T12:22:18.495Z,68.8
2017-04-07T12:23:21.709Z,70.4
2017-04-07T12:24:24.098Z,70.3
2017-04-07T12:25:26.452Z,70
2017-04-07T12:27:31.704Z,70.3
2017-04-07T12:28:34.805Z,71.3
2017-04-07T12:29:37.150Z,70.4
2017-04-07T12:30:39.998Z,71.1
2017-04-07T12:31:42.349Z,71.7
2017-04-07T12:32:45.068Z,71.7
2017-04-07T12:33:48.273Z,71.1
2017-04-07T12:34:50.617Z,70.8
2017-04-07T12:35:53.019Z,71.1
2017-04-07T12:36:55.897Z,70.6
2017-04-07T12:37:58.108Z,70.5
2017-04-07T12:39:01.280Z,70.8
2017-04-07T12:40:03.493Z,70.4
2017-04-07T12:41:06.340Z,70.6
2017-04-07T12:43:11.594Z,70.8
2017-04-07T12:44:14.745Z,70.8
2017-04-07T12:45:17.085Z,71.3
2017-04-07T12:46:19.297Z,70.5
2017-04-07T12:47:22.016Z,70.4
2017-04-07T12:48:24.785Z,70.3
2017-04-07T12:49:27.938Z,71.2
2017-04-07T12:50:30.282Z,70.7
2017-04-07T12:51:33.187Z,71
2017-04-07T12:52:35.395Z,70.3
2017-04-07T12:53:38.111Z,70.8
2017-04-07T12:54:41.210Z,71.1
2017-04-07T12:55:43.423Z,71.7
2017-04-07T12:56:46.276Z,71
2017-04-07T12:57:48.618Z,71.2
2017-04-07T12:58:51.468Z,71.1
2017-04-07T12:59:54.061Z,71.8
2017-04-07T13:00:56.906Z,71.9
2017-04-07T13:01:59.254Z,71.6
2017-04-07T13:03:02.105Z,71.6
2017-04-07T13:04:04.322Z,71.2
2017-04-07T13:05:07.436Z,71.7
2017-04-07T13:06:09.648Z,71.4
2017-04-07T13:07:12.728Z,71.4
2017-04-07T13:08:15.072Z,71.2
2017-04-07T13:09:17.979Z,71.7
2017-04-07T13:10:20.446Z,71.8
2017-04-07T13:11:23.293Z,71.2
2017-04-07T13:12:25.635Z,72.2
2017-04-07T13:13:28.346Z,71.9
2017-04-07T13:14:31.198Z,71.7
2017-04-07T13:15:33.796Z,71.5
2017-04-07T13:16:36.140Z,71.1
2017-04-07T13:17:38.858Z,71.5
2017-04-07T13:18:41.622Z,71
2017-04-07T13:19:44.470Z,71.4
2017-04-07T13:20:47.067Z,71
2017-04-07T13:21:49.468Z,71.1
2017-04-07T13:22:52.312Z,71.2
2017-04-07T13:23:55.158Z,71.4
2017-04-07T13:24:57.506Z,70.1
2017-04-07T13:26:00.474Z,69
2017-04-07T13:27:02.741Z,70
2017-04-07T13:28:06.179Z,70
2017-04-07T13:29:07.920Z,70.4
2017-04-07T13:30:10.642Z,69.5
2017-04-07T13:31:13.794Z,69.1
2017-04-07T13:33:18.542Z,71.1
2017-04-07T13:34:21.394Z,69.8
2017-04-07T13:35:24.242Z,70.2
2017-04-07T13:36:26.888Z,69.1
2017-04-07T13:37:29.237Z,70.3
2017-04-07T13:38:32.089Z,69.2
2017-04-07T13:39:34.446Z,69.7
2017-04-07T13:41:40.501Z,69.3
2017-04-07T13:42:42.848Z,68.7
2017-04-07T13:43:45.190Z,69.1
2017-04-07T13:44:48.597Z,69.1
2017-04-07T13:45:50.815Z,69.8
2017-04-07T13:46:53.332Z,68.6
2017-04-07T13:47:55.678Z,69
2017-04-07T13:48:58.523Z,68.7
2017-04-07T13:50:01.099Z,69.2
2017-04-07T13:51:03.947Z,67.7
2017-04-07T13:52:06.597Z,69.4
2017-04-07T13:53:08.941Z,68.7
2017-04-07T13:54:11.790Z,69.3
2017-04-07T13:55:14.642Z,69.1
2017-04-07T13:56:16.984Z,68.6
2017-04-07T13:57:19.815Z,67.7
2017-04-07T13:58:22.523Z,68.6
2017-04-07T13:59:25.237Z,68.4
2017-04-07T14:00:27.578Z,69.2
2017-04-07T14:01:30.422Z,68.3
2017-04-07T14:02:33.386Z,69.1
2017-04-07T14:03:35.740Z,69
2017-04-07T14:04:38.455Z,68.7
2017-04-07T14:05:41.358Z,68.6
2017-04-07T14:06:43.704Z,68.4
2017-04-07T14:07:46.352Z,68
2017-04-07T14:08:49.069Z,67.8
2017-04-07T14:09:51.414Z,68.8
2017-04-07T14:10:54.132Z,68.6
2017-04-07T14:11:56.974Z,69.2
2017-04-07T14:12:59.988Z,68.8
2017-04-07T14:14:02.195Z,69.5
2017-04-07T14:15:04.913Z,69.8
2017-04-07T14:16:07.257Z,69.2
2017-04-07T14:17:10.102Z,70
2017-04-07T14:18:13.252Z,68.6
2017-04-07T14:19:15.596Z,68.4
2017-04-07T14:20:17.944Z,68.3
2017-04-07T14:21:20.801Z,68.3
2017-04-07T14:22:23.148Z,69.4
2017-04-07T14:23:26.298Z,68.3
2017-04-07T14:24:28.711Z,68.3
2017-04-07T14:25:31.559Z,68.1
2017-04-07T14:26:33.903Z,68.1
2017-04-07T14:27:36.753Z,68.6
2017-04-07T14:28:39.723Z,69.5
2017-04-07T14:29:41.933Z,68.9
2017-04-07T14:30:44.780Z,68.2
2017-04-07T14:31:47.123Z,68.3
2017-04-07T14:32:49.977Z,68.5
2017-04-07T14:33:52.492Z,68.5
2017-04-07T14:34:55.340Z,68.8
2017-04-07T14:35:58.095Z,68.9
2017-04-07T14:37:00.430Z,68.5
2017-04-07T14:39:05.981Z,69
2017-04-07T14:40:08.325Z,69.1
2017-04-07T14:41:11.171Z,69.1
2017-04-07T14:44:19.446Z,68.4
2017-04-07T14:46:24.195Z,68.6
2017-04-07T14:47:27.099Z,69
2017-04-07T14:48:29.811Z,68.8
2017-04-07T14:49:32.411Z,69.4
2017-04-07T14:50:35.257Z,69.3
2017-04-07T14:51:37.606Z,69.4
2017-04-07T14:52:40.513Z,69.4
2017-04-07T14:53:42.856Z,68.7
2017-04-07T14:54:46.007Z,68.9
2017-04-07T14:55:48.350Z,68.5
2017-04-07T14:56:51.195Z,68.1
2017-04-07T14:57:54.100Z,68.7
2017-04-07T14:58:57.006Z,68.6
2017-04-07T14:59:59.148Z,69.4
2017-04-07T15:01:01.491Z,68.8
2017-04-07T15:02:04.341Z,68.7